createdAt,value
2023-02-23T00:00:28.814Z,11.71
2023-02-23T00:02:36.430Z,11.70
2023-02-23T00:04:42.174Z,11.73
2023-02-23T00:06:48.198Z,11.71
2023-02-23T00:08:53.140Z,11.73
2023-02-23T00:10:59.125Z,11.72
2023-02-23T00:13:05.130Z,11.72
2023-02-23T00:15:11.310Z,11.73
2023-02-23T00:17:17.695Z,11.74
2023-02-23T00:19:25.487Z,11.74
2023-02-23T00:21:33.098Z,11.73
2023-02-23T00:23:38.841Z,11.71
2023-02-23T00:25:46.163Z,11.71
2023-02-23T00:27:51.020Z,11.72
2023-02-23T00:29:56.776Z,11.72
2023-02-23T00:32:01.649Z,11.71
2023-02-23T00:34:07.632Z,11.70
2023-02-23T00:36:17.273Z,11.71
2023-02-23T00:38:22.646Z,11.69
2023-02-23T00:40:27.780Z,11.66
2023-02-23T00:42:32.431Z,11.60
2023-02-23T00:44:40.708Z,11.56
2023-02-23T00:46:49.222Z,11.58
2023-02-23T00:48:56.859Z,11.57
2023-02-23T00:51:02.477Z,11.54
2023-02-23T00:53:11.502Z,11.52
2023-02-23T00:55:17.753Z,11.45
2023-02-23T00:57:22.657Z,11.43
2023-02-23T00:59:29.814Z,11.41
2023-02-23T01:01:35.196Z,11.36
2023-02-23T01:03:41.823Z,11.34
2023-02-23T01:05:50.066Z,11.31
2023-02-23T01:07:54.975Z,11.29
2023-02-23T01:10:18.893Z,11.26
2023-02-23T01:12:25.669Z,11.23
2023-02-23T01:14:31.417Z,11.22
2023-02-23T01:16:39.098Z,11.23
2023-02-23T01:18:45.665Z,11.20
2023-02-23T01:20:51.134Z,11.21
2023-02-23T01:22:55.927Z,11.18
2023-02-23T01:25:03.464Z,11.18
2023-02-23T01:27:11.433Z,11.15
2023-02-23T01:29:18.063Z,11.08
2023-02-23T01:31:24.063Z,11.05
2023-02-23T01:33:29.119Z,11.05
2023-02-23T01:35:34.728Z,11.05
2023-02-23T01:37:40.927Z,11.07
2023-02-23T01:39:46.329Z,11.05
2023-02-23T01:41:55.662Z,11.05
2023-02-23T01:44:01.775Z,11.02
2023-02-23T01:46:07.020Z,11.01
2023-02-23T01:48:15.358Z,11.02
2023-02-23T01:50:21.764Z,11.00
2023-02-23T01:52:27.610Z,11.01
2023-02-23T01:54:36.497Z,11.00
2023-02-23T01:56:47.604Z,11.01
2023-02-23T01:59:00.062Z,10.99
2023-02-23T02:01:05.731Z,10.98
2023-02-23T02:03:17.270Z,10.99
2023-02-23T02:05:23.293Z,10.94
2023-02-23T02:07:31.803Z,10.93
2023-02-23T02:09:38.103Z,10.89
2023-02-23T02:11:45.195Z,10.86
2023-02-23T02:13:50.104Z,10.84
2023-02-23T02:16:28.323Z,10.85
2023-02-23T02:18:42.045Z,10.81
2023-02-23T02:21:06.278Z,10.79
2023-02-23T02:23:37.283Z,10.75
2023-02-23T02:25:57.789Z,10.74
2023-02-23T02:28:35.867Z,10.73
2023-02-23T02:31:13.412Z,10.72
2023-02-23T02:33:58.687Z,10.74
2023-02-23T02:36:23.796Z,10.72
2023-02-23T02:38:53.875Z,10.71
2023-02-23T02:41:05.685Z,10.65
2023-02-23T02:43:17.814Z,10.64
2023-02-23T02:45:29.641Z,10.63
2023-02-23T02:47:41.724Z,10.61
2023-02-23T02:49:54.124Z,10.60
2023-02-23T02:52:08.178Z,10.60
2023-02-23T02:54:23.685Z,10.60
2023-02-23T02:56:30.029Z,10.57
2023-02-23T02:58:35.752Z,10.57
2023-02-23T03:00:56.921Z,10.57
2023-02-23T03:03:15.168Z,10.56
2023-02-23T03:05:34.836Z,10.55
2023-02-23T03:07:59.215Z,10.53
2023-02-23T03:10:28.462Z,10.47
2023-02-23T03:12:52.254Z,10.42
2023-02-23T03:15:18.356Z,10.33
2023-02-23T03:17:47.448Z,10.28
2023-02-23T03:20:12.971Z,10.28
2023-02-23T03:22:37.166Z,10.26
2023-02-23T03:24:57.771Z,10.24
2023-02-23T03:27:22.930Z,10.24
2023-02-23T03:29:48.117Z,10.22
2023-02-23T03:32:15.435Z,10.19
2023-02-23T03:34:38.035Z,10.19
2023-02-23T03:37:02.700Z,10.19
2023-02-23T03:39:30.977Z,10.20
2023-02-23T03:41:51.277Z,10.21
2023-02-23T03:44:16.019Z,10.21
2023-02-23T03:46:35.596Z,10.23
2023-02-23T03:48:58.944Z,10.21
2023-02-23T03:51:20.729Z,10.20
2023-02-23T03:53:44.915Z,10.19
2023-02-23T03:56:09.493Z,10.16
2023-02-23T03:58:31.921Z,10.14
2023-02-23T04:00:58.249Z,10.07
2023-02-23T04:03:16.623Z,10.02
2023-02-23T04:05:36.468Z,9.96
2023-02-23T04:07:56.235Z,9.93
2023-02-23T04:10:13.643Z,9.91
2023-02-23T04:12:36.221Z,9.89
2023-02-23T04:14:42.074Z,9.87
2023-02-23T04:16:48.134Z,9.82
2023-02-23T04:18:55.875Z,9.80
2023-02-23T04:21:01.982Z,9.82
2023-02-23T04:23:07.102Z,9.83
2023-02-23T04:25:13.274Z,9.84
2023-02-23T04:27:18.870Z,9.83
2023-02-23T04:29:24.260Z,9.83
2023-02-23T04:31:29.291Z,9.84
2023-02-23T04:33:36.694Z,9.85
2023-02-23T04:35:41.512Z,9.85
2023-02-23T04:37:46.424Z,9.85
2023-02-23T04:39:51.316Z,9.83
2023-02-23T04:41:56.202Z,9.84
2023-02-23T04:44:01.058Z,9.83
2023-02-23T04:46:05.968Z,9.83
2023-02-23T04:48:11.107Z,9.81
2023-02-23T04:50:18.974Z,9.79
2023-02-23T04:52:31.704Z,9.79
2023-02-23T04:54:36.837Z,9.75
2023-02-23T04:56:41.846Z,9.73
2023-02-23T04:58:46.680Z,9.71
2023-02-23T05:00:51.474Z,9.69
2023-02-23T05:02:56.384Z,9.68
2023-02-23T05:05:01.303Z,9.69
2023-02-23T05:07:08.836Z,9.70
2023-02-23T05:09:13.619Z,9.69
2023-02-23T05:11:18.611Z,9.66
2023-02-23T05:13:23.581Z,9.68
2023-02-23T05:15:30.446Z,9.67
2023-02-23T05:17:35.219Z,9.66
2023-02-23T05:19:40.143Z,9.66
2023-02-23T05:21:44.959Z,9.64
2023-02-23T05:23:52.378Z,9.64
2023-02-23T05:25:58.491Z,9.63
2023-02-23T05:28:03.860Z,9.63
2023-02-23T05:30:10.406Z,9.64
2023-02-23T05:32:15.467Z,9.67
2023-02-23T05:34:20.320Z,9.70
2023-02-23T05:36:25.274Z,9.72
2023-02-23T05:38:30.141Z,9.70
2023-02-23T05:40:37.554Z,9.71
2023-02-23T05:42:42.357Z,9.71
2023-02-23T05:44:47.212Z,9.74
2023-02-23T05:46:51.978Z,9.79
2023-02-23T05:49:00.920Z,9.79
2023-02-23T05:51:06.391Z,9.81
2023-02-23T05:53:17.400Z,9.85
2023-02-23T05:55:23.178Z,9.88
2023-02-23T05:57:30.635Z,9.89
2023-02-23T05:59:35.439Z,9.90
2023-02-23T06:01:40.331Z,9.89
2023-02-23T06:03:45.166Z,9.90
2023-02-23T06:05:56.157Z,9.91
2023-02-23T06:08:01.122Z,9.93
2023-02-23T06:10:06.644Z,9.94
2023-02-23T06:12:11.875Z,9.96
2023-02-23T06:14:19.518Z,9.96
2023-02-23T06:16:24.434Z,9.98
2023-02-23T06:18:29.522Z,9.98
2023-02-23T06:20:34.381Z,9.98
2023-02-23T06:22:39.378Z,10.00
2023-02-23T06:24:44.177Z,10.02
2023-02-23T06:26:49.125Z,10.01
2023-02-23T06:28:53.932Z,10.03
2023-02-23T06:31:01.736Z,10.02
2023-02-23T06:33:07.075Z,10.06
2023-02-23T06:35:12.491Z,10.10
2023-02-23T06:37:17.134Z,10.09
2023-02-23T06:39:22.062Z,10.09
2023-02-23T06:41:27.878Z,10.11
2023-02-23T06:43:32.670Z,10.14
2023-02-23T06:45:37.665Z,10.15
2023-02-23T06:47:45.240Z,10.17
2023-02-23T06:49:50.554Z,10.20
2023-02-23T06:51:58.367Z,10.18
2023-02-23T06:54:04.860Z,10.19
2023-02-23T06:56:12.444Z,10.19
2023-02-23T06:58:17.831Z,10.20
2023-02-23T07:00:23.875Z,10.24
2023-02-23T07:02:28.842Z,10.25
2023-02-23T07:04:36.625Z,10.29
2023-02-23T07:06:41.456Z,10.33
2023-02-23T07:08:46.305Z,10.38
2023-02-23T07:10:51.548Z,10.42
2023-02-23T07:12:59.108Z,10.45
2023-02-23T07:15:04.266Z,10.49
2023-02-23T07:17:10.467Z,10.47
2023-02-23T07:19:17.149Z,10.47
2023-02-23T07:21:24.638Z,10.54
2023-02-23T07:23:29.527Z,10.58
2023-02-23T07:25:34.594Z,10.58
2023-02-23T07:27:39.551Z,10.61
2023-02-23T07:29:44.548Z,10.63
2023-02-23T07:31:50.188Z,10.67
2023-02-23T07:33:55.851Z,10.69
2023-02-23T07:36:00.678Z,10.70
2023-02-23T07:38:08.213Z,10.73
2023-02-23T07:40:14.510Z,10.74
2023-02-23T07:42:19.435Z,10.72
2023-02-23T07:44:24.264Z,10.75
2023-02-23T07:46:29.476Z,10.76
2023-02-23T07:48:34.295Z,10.78
2023-02-23T07:50:39.097Z,10.79
2023-02-23T07:52:45.574Z,10.80
2023-02-23T07:54:54.488Z,10.83
2023-02-23T07:56:59.511Z,10.87
2023-02-23T07:59:04.469Z,10.90
2023-02-23T08:01:09.944Z,10.92
2023-02-23T08:03:14.756Z,10.98
2023-02-23T08:05:20.034Z,11.01
2023-02-23T08:07:25.962Z,10.99
2023-02-23T08:09:32.743Z,11.02
2023-02-23T08:11:40.659Z,11.06
2023-02-23T08:13:45.671Z,11.10
2023-02-23T08:15:50.439Z,11.16
2023-02-23T08:17:55.520Z,11.21
2023-02-23T08:20:00.498Z,11.28
2023-02-23T08:22:07.274Z,11.31
2023-02-23T08:24:14.190Z,11.30
2023-02-23T08:26:18.929Z,11.23
2023-02-23T08:28:26.620Z,11.23
2023-02-23T08:30:31.573Z,11.26
2023-02-23T08:32:37.853Z,11.28
2023-02-23T08:34:43.407Z,11.31
2023-02-23T08:36:48.343Z,11.32
2023-02-23T08:38:54.778Z,11.34
2023-02-23T08:41:03.715Z,11.33
2023-02-23T08:43:08.693Z,11.36
2023-02-23T08:45:16.975Z,11.38
2023-02-23T08:47:24.443Z,11.39
2023-02-23T08:49:29.565Z,11.39
2023-02-23T08:51:35.072Z,11.38
2023-02-23T08:53:40.270Z,11.37
2023-02-23T08:55:45.819Z,11.38
2023-02-23T08:57:50.950Z,11.37
2023-02-23T08:59:56.043Z,11.42
2023-02-23T09:02:03.821Z,11.44
2023-02-23T09:04:08.994Z,11.48
2023-02-23T09:06:17.017Z,11.53
2023-02-23T09:08:22.183Z,11.55
2023-02-23T09:10:29.080Z,11.54
2023-02-23T09:12:36.052Z,11.55
2023-02-23T09:14:40.929Z,11.56
2023-02-23T09:16:46.242Z,11.63
2023-02-23T09:18:55.738Z,11.64
2023-02-23T09:21:00.623Z,11.63
2023-02-23T09:23:05.434Z,11.63
2023-02-23T09:25:12.899Z,11.61
2023-02-23T09:27:17.901Z,11.56
2023-02-23T09:29:23.173Z,11.49
2023-02-23T09:31:28.414Z,11.51
2023-02-23T09:33:33.224Z,11.50
2023-02-23T09:35:41.522Z,11.47
2023-02-23T09:37:48.403Z,11.48
2023-02-23T09:39:54.815Z,11.50
2023-02-23T09:42:10.476Z,11.55
2023-02-23T09:44:25.106Z,11.63
2023-02-23T09:46:38.475Z,11.69
2023-02-23T09:48:44.161Z,11.74
2023-02-23T09:50:55.189Z,11.84
2023-02-23T09:53:04.755Z,11.87
2023-02-23T09:55:12.748Z,11.92
2023-02-23T09:57:21.214Z,12.02
2023-02-23T09:59:26.443Z,12.09
2023-02-23T10:01:46.418Z,12.12
2023-02-23T10:03:58.455Z,12.20
2023-02-23T10:06:12.199Z,12.20
2023-02-23T10:08:25.354Z,12.19
2023-02-23T10:10:41.773Z,12.16
2023-02-23T10:12:57.090Z,12.13
2023-02-23T10:15:10.467Z,12.03
2023-02-23T10:17:27.961Z,12.05
2023-02-23T10:19:41.767Z,12.06
2023-02-23T10:21:53.972Z,12.08
2023-02-23T10:24:04.655Z,12.11
2023-02-23T10:26:14.610Z,12.11
2023-02-23T10:28:21.951Z,12.10
2023-02-23T10:30:28.871Z,12.11
2023-02-23T10:32:43.097Z,12.14
2023-02-23T10:34:52.176Z,12.08
2023-02-23T10:37:02.321Z,12.10
2023-02-23T10:39:10.179Z,12.10
2023-02-23T10:41:15.832Z,12.10
2023-02-23T10:43:20.896Z,12.16
2023-02-23T10:45:27.732Z,12.23
2023-02-23T10:47:35.593Z,12.36
2023-02-23T10:49:46.412Z,12.46
2023-02-23T10:51:52.420Z,12.54
2023-02-23T10:54:07.831Z,12.56
2023-02-23T10:56:13.922Z,12.56
2023-02-23T10:58:21.953Z,12.56
2023-02-23T11:00:33.176Z,12.55
2023-02-23T11:02:39.407Z,12.61
2023-02-23T11:04:54.242Z,12.56
2023-02-23T11:07:11.771Z,12.54
2023-02-23T11:09:43.228Z,12.57
2023-02-23T11:11:59.825Z,12.45
2023-02-23T11:14:20.059Z,12.42
2023-02-23T11:16:27.670Z,12.51
2023-02-23T11:18:33.187Z,12.61
2023-02-23T11:20:41.838Z,12.64
2023-02-23T11:22:47.645Z,12.71
2023-02-23T11:24:56.233Z,12.72
2023-02-23T11:27:03.972Z,12.77
2023-02-23T11:29:17.941Z,12.82
2023-02-23T11:31:26.061Z,12.86
2023-02-23T11:33:36.212Z,12.91
2023-02-23T11:35:41.679Z,12.84
2023-02-23T11:37:46.496Z,12.81
2023-02-23T11:40:00.466Z,12.81
2023-02-23T11:42:19.970Z,12.78
2023-02-23T11:44:26.054Z,12.61
2023-02-23T11:46:33.744Z,12.55
2023-02-23T11:48:47.123Z,12.58
2023-02-23T11:50:53.011Z,12.51
2023-02-23T11:53:06.329Z,12.46
2023-02-23T11:55:21.154Z,12.32
2023-02-23T11:57:29.324Z,12.17
2023-02-23T11:59:37.935Z,12.16
2023-02-23T12:01:46.530Z,12.05
2023-02-23T12:03:56.808Z,12.08
2023-02-23T12:06:02.534Z,12.03
2023-02-23T12:08:12.878Z,12.08
2023-02-23T12:10:27.135Z,12.16
2023-02-23T12:12:34.863Z,12.29
2023-02-23T12:14:45.156Z,12.36
2023-02-23T12:16:56.073Z,12.42
2023-02-23T12:19:05.520Z,12.61
2023-02-23T12:21:35.743Z,12.78
2023-02-23T12:23:44.062Z,12.89
2023-02-23T12:25:56.909Z,12.96
2023-02-23T12:28:18.612Z,13.06
2023-02-23T12:30:34.776Z,13.17
2023-02-23T12:32:48.799Z,13.27
2023-02-23T12:34:59.543Z,13.29
2023-02-23T12:37:13.222Z,13.26
2023-02-23T12:39:25.679Z,13.25
2023-02-23T12:41:40.535Z,13.24
2023-02-23T12:43:51.677Z,13.32
2023-02-23T12:46:08.332Z,13.45
2023-02-23T12:48:28.341Z,13.54
2023-02-23T12:50:36.559Z,13.58
2023-02-23T12:52:46.486Z,13.62
2023-02-23T12:54:55.465Z,13.68
2023-02-23T12:57:21.049Z,13.67
2023-02-23T12:59:46.460Z,13.61
2023-02-23T13:01:58.654Z,13.70
2023-02-23T13:04:23.788Z,13.81
2023-02-23T13:06:39.996Z,13.81
2023-02-23T13:09:03.493Z,13.79
2023-02-23T13:11:20.990Z,13.87
2023-02-23T13:13:39.515Z,13.72
2023-02-23T13:15:56.500Z,13.69
2023-02-23T13:18:06.357Z,13.76
2023-02-23T13:20:21.606Z,13.88
2023-02-23T13:22:33.595Z,13.96
2023-02-23T13:24:41.464Z,14.04
2023-02-23T13:26:52.157Z,14.09
2023-02-23T13:29:05.267Z,14.12
2023-02-23T13:31:21.131Z,14.18
2023-02-23T13:33:43.657Z,14.13
2023-02-23T13:35:48.792Z,14.17
2023-02-23T13:37:59.718Z,14.18
2023-02-23T13:40:21.342Z,14.19
2023-02-23T13:42:45.420Z,14.18
2023-02-23T13:44:58.490Z,14.16
2023-02-23T13:47:14.378Z,14.12
2023-02-23T13:49:38.731Z,14.07
2023-02-23T13:51:49.485Z,14.01
2023-02-23T13:54:03.745Z,13.93
2023-02-23T13:56:11.086Z,13.82
2023-02-23T13:58:18.583Z,13.75
2023-02-23T14:00:27.390Z,13.78
2023-02-23T14:02:40.899Z,13.77
2023-02-23T14:04:46.143Z,13.80
2023-02-23T14:06:57.336Z,13.64
2023-02-23T14:09:09.707Z,13.62
2023-02-23T14:11:43.492Z,13.58
2023-02-23T14:14:02.344Z,13.58
2023-02-23T14:16:30.845Z,13.48
2023-02-23T14:18:36.649Z,13.35
2023-02-23T14:20:57.617Z,13.38
2023-02-23T14:23:18.591Z,13.36
2023-02-23T14:25:51.446Z,13.42
2023-02-23T14:28:02.057Z,13.44
2023-02-23T14:30:17.306Z,13.49
2023-02-23T14:32:35.066Z,13.38
2023-02-23T14:34:47.671Z,13.32
2023-02-23T14:36:56.586Z,13.26
2023-02-23T14:39:03.865Z,13.27
2023-02-23T14:41:10.321Z,13.23
2023-02-23T14:43:45.092Z,13.25
2023-02-23T14:45:50.004Z,13.22
2023-02-23T14:48:00.641Z,13.30
2023-02-23T14:50:05.791Z,13.31
2023-02-23T14:52:15.986Z,13.35
2023-02-23T14:54:28.174Z,13.42
2023-02-23T14:56:43.682Z,13.44
2023-02-23T14:58:55.540Z,13.49
2023-02-23T15:01:00.366Z,13.51
2023-02-23T15:03:12.189Z,13.50
2023-02-23T15:05:18.376Z,13.47
2023-02-23T15:07:31.841Z,13.46
2023-02-23T15:09:42.696Z,13.45
2023-02-23T15:11:54.134Z,13.41
2023-02-23T15:13:58.970Z,13.42
2023-02-23T15:16:08.441Z,13.39
2023-02-23T15:18:25.092Z,13.39
2023-02-23T15:22:41.801Z,13.25
2023-02-23T15:24:50.650Z,13.07
2023-02-23T15:26:55.869Z,12.84
2023-02-23T15:29:08.062Z,12.81
2023-02-23T15:31:14.285Z,12.78
2023-02-23T15:33:28.502Z,12.84
2023-02-23T15:35:38.033Z,12.79
2023-02-23T15:37:45.472Z,12.82
2023-02-23T15:39:57.030Z,12.80
2023-02-23T15:42:02.310Z,12.84
2023-02-23T15:44:14.245Z,12.74
2023-02-23T15:46:27.783Z,12.74
2023-02-23T15:48:45.979Z,12.73
2023-02-23T15:50:56.156Z,12.77
2023-02-23T15:53:04.215Z,12.85
2023-02-23T15:55:12.589Z,12.86
2023-02-23T15:57:23.098Z,12.83
2023-02-23T15:59:31.294Z,12.83
2023-02-23T16:01:36.134Z,12.79
2023-02-23T16:03:49.297Z,12.69
2023-02-23T16:06:01.971Z,12.57
2023-02-23T16:08:11.755Z,12.57
2023-02-23T16:10:25.667Z,12.54
2023-02-23T16:12:34.331Z,12.46
2023-02-23T16:14:47.246Z,12.26
2023-02-23T16:17:10.406Z,12.17
2023-02-23T16:19:21.634Z,12.09
2023-02-23T16:21:30.890Z,12.13
2023-02-23T16:23:39.011Z,12.10
2023-02-23T16:25:46.181Z,12.06
2023-02-23T16:27:59.617Z,12.10
2023-02-23T16:30:19.300Z,12.13
2023-02-23T16:32:25.456Z,12.15
2023-02-23T16:34:37.686Z,12.18
2023-02-23T16:36:43.579Z,12.14
2023-02-23T16:39:00.592Z,12.14
2023-02-23T16:41:06.053Z,12.15
2023-02-23T16:43:12.789Z,12.15
2023-02-23T16:45:20.213Z,12.19
2023-02-23T16:47:37.072Z,12.28
2023-02-23T16:49:44.534Z,12.32
2023-02-23T16:51:49.664Z,12.30
2023-02-23T16:53:54.355Z,12.30
2023-02-23T16:56:01.009Z,12.31
2023-02-23T16:58:06.627Z,12.33
2023-02-23T17:00:18.150Z,12.37
2023-02-23T17:02:25.227Z,12.32
2023-02-23T17:04:30.261Z,12.27
2023-02-23T17:06:38.370Z,12.24
2023-02-23T17:08:52.196Z,12.24
2023-02-23T17:11:01.241Z,12.24
2023-02-23T17:13:08.219Z,12.26
2023-02-23T17:15:20.195Z,12.31
2023-02-23T17:17:26.100Z,12.31
2023-02-23T17:19:30.950Z,12.32
2023-02-23T17:21:38.939Z,12.32
2023-02-23T17:23:48.376Z,12.36
2023-02-23T17:25:55.575Z,12.37
2023-02-23T17:28:01.356Z,12.39
2023-02-23T17:30:11.842Z,12.36
2023-02-23T17:32:16.834Z,12.22
2023-02-23T17:34:21.645Z,12.17
2023-02-23T17:36:27.628Z,12.15
2023-02-23T17:38:39.864Z,12.16
2023-02-23T17:40:44.750Z,12.06
2023-02-23T17:42:49.576Z,12.04
2023-02-23T17:44:56.885Z,12.03
2023-02-23T17:47:01.664Z,12.04
2023-02-23T17:49:07.310Z,12.03
2023-02-23T17:51:13.680Z,12.04
2023-02-23T17:53:18.464Z,12.03
2023-02-23T17:55:26.811Z,12.04
2023-02-23T17:57:33.135Z,12.05
2023-02-23T17:59:38.038Z,11.96
2023-02-23T18:01:43.022Z,11.96
2023-02-23T18:03:48.264Z,11.90
2023-02-23T18:05:52.879Z,11.79
2023-02-23T18:08:00.872Z,11.71
2023-02-23T18:10:06.009Z,11.66
2023-02-23T18:12:13.229Z,11.59
2023-02-23T18:14:18.169Z,11.52
2023-02-23T18:16:24.527Z,11.47
2023-02-23T18:18:30.077Z,11.49
2023-02-23T18:20:35.039Z,11.46
2023-02-23T18:22:40.104Z,11.40
2023-02-23T18:24:44.997Z,11.42
2023-02-23T18:26:50.184Z,11.42
2023-02-23T18:28:59.792Z,11.44
2023-02-23T18:31:05.069Z,11.45
2023-02-23T18:33:10.578Z,11.49
2023-02-23T18:35:15.486Z,11.53
2023-02-23T18:37:25.245Z,11.54
2023-02-23T18:39:30.731Z,11.57
2023-02-23T18:41:35.440Z,11.56
2023-02-23T18:43:40.648Z,11.59
2023-02-23T18:45:47.957Z,11.57
2023-02-23T18:47:52.793Z,11.59
2023-02-23T18:50:01.823Z,11.62
2023-02-23T18:52:09.529Z,11.64
2023-02-23T18:54:16.962Z,11.65
2023-02-23T18:56:25.197Z,11.67
2023-02-23T18:58:30.205Z,11.67
2023-02-23T19:00:42.859Z,11.70
2023-02-23T19:02:51.122Z,11.72
2023-02-23T19:05:02.969Z,11.72
2023-02-23T19:07:08.207Z,11.65
2023-02-23T19:09:14.627Z,11.59
2023-02-23T19:11:19.807Z,11.61
2023-02-23T19:13:24.484Z,11.60
2023-02-23T19:15:29.325Z,11.55
2023-02-23T19:17:34.099Z,11.56
2023-02-23T19:19:41.562Z,11.51
2023-02-23T19:21:46.363Z,11.50
2023-02-23T19:23:51.753Z,11.48
2023-02-23T19:25:58.964Z,11.49
2023-02-23T19:28:04.158Z,11.51
2023-02-23T19:30:12.165Z,11.50
2023-02-23T19:32:18.712Z,11.50
2023-02-23T19:34:23.649Z,11.52
2023-02-23T19:36:33.850Z,11.53
2023-02-23T19:38:39.284Z,11.53
2023-02-23T19:40:44.245Z,11.54
2023-02-23T19:42:49.659Z,11.56
2023-02-23T19:44:56.633Z,11.57
2023-02-23T19:47:01.464Z,11.57
2023-02-23T19:49:07.239Z,11.60
2023-02-23T19:51:13.419Z,11.62
2023-02-23T19:53:20.934Z,11.62
2023-02-23T19:55:25.861Z,11.60
2023-02-23T19:57:31.028Z,11.61
2023-02-23T19:59:35.592Z,11.58
2023-02-23T20:01:40.675Z,11.57
2023-02-23T20:03:49.667Z,11.61
2023-02-23T20:05:57.492Z,11.63
2023-02-23T20:08:02.376Z,11.66
2023-02-23T20:10:14.019Z,11.64
2023-02-23T20:12:19.014Z,11.63
2023-02-23T20:14:25.083Z,11.63
2023-02-23T20:16:30.220Z,11.63
2023-02-23T20:18:35.710Z,11.59
2023-02-23T20:20:42.334Z,11.48
2023-02-23T20:22:47.556Z,11.49
2023-02-23T20:24:52.331Z,11.47
2023-02-23T20:27:03.027Z,11.49
2023-02-23T20:29:11.268Z,11.46
2023-02-23T20:31:18.183Z,11.46
2023-02-23T20:33:23.987Z,11.45
2023-02-23T20:35:32.301Z,11.47
2023-02-23T20:37:37.522Z,11.50
2023-02-23T20:39:42.530Z,11.51
2023-02-23T20:41:55.656Z,11.55
2023-02-23T20:44:03.588Z,11.56
2023-02-23T20:46:09.233Z,11.56
2023-02-23T20:48:16.038Z,11.52
2023-02-23T20:50:22.056Z,11.39
2023-02-23T20:52:27.196Z,11.30
2023-02-23T20:54:32.137Z,11.22
2023-02-23T20:56:37.409Z,11.12
2023-02-23T20:58:42.727Z,11.15
2023-02-23T21:00:50.442Z,11.13
2023-02-23T21:02:55.929Z,11.10
2023-02-23T21:05:00.893Z,11.09
2023-02-23T21:07:07.373Z,11.09
2023-02-23T21:09:18.084Z,11.02
2023-02-23T21:11:25.144Z,10.95
2023-02-23T21:13:30.215Z,10.96
2023-02-23T21:15:37.160Z,10.99
2023-02-23T21:17:45.060Z,11.02
2023-02-23T21:19:49.932Z,11.02
2023-02-23T21:21:58.034Z,11.03
2023-02-23T21:24:02.906Z,11.03
2023-02-23T21:26:14.301Z,10.95
2023-02-23T21:28:20.800Z,10.88
2023-02-23T21:30:28.697Z,10.85
2023-02-23T21:32:35.400Z,10.78
2023-02-23T21:34:43.394Z,10.74
2023-02-23T21:36:50.356Z,10.69
2023-02-23T21:38:55.245Z,10.65
2023-02-23T21:41:00.394Z,10.63
2023-02-23T21:43:09.182Z,10.53
2023-02-23T21:45:15.298Z,10.46
2023-02-23T21:47:20.236Z,10.38
2023-02-23T21:49:25.092Z,10.31
2023-02-23T21:51:36.675Z,10.34
2023-02-23T21:53:42.768Z,10.32
2023-02-23T21:55:47.639Z,10.32
2023-02-23T21:57:55.955Z,10.34
2023-02-23T22:00:00.805Z,10.36
2023-02-23T22:02:05.694Z,10.44
2023-02-23T22:04:12.377Z,10.49
2023-02-23T22:06:18.581Z,10.56
2023-02-23T22:08:26.048Z,10.61
2023-02-23T22:10:30.966Z,10.63
2023-02-23T22:12:36.050Z,10.63
2023-02-23T22:14:40.812Z,10.63
2023-02-23T22:16:45.899Z,10.64
2023-02-23T22:18:50.865Z,10.55
2023-02-23T22:20:59.281Z,10.52
2023-02-23T22:23:04.181Z,10.41
2023-02-23T22:25:12.996Z,10.45
2023-02-23T22:27:17.922Z,10.38
2023-02-23T22:29:23.954Z,10.40
2023-02-23T22:31:28.987Z,10.40
2023-02-23T22:33:34.486Z,10.42
2023-02-23T22:35:42.453Z,10.42
2023-02-23T22:37:47.485Z,10.39
2023-02-23T22:39:52.251Z,10.32
2023-02-23T22:41:59.999Z,10.28
2023-02-23T22:44:05.201Z,10.35
2023-02-23T22:46:10.479Z,10.36
2023-02-23T22:48:15.429Z,10.46
2023-02-23T22:50:20.814Z,10.56
2023-02-23T22:52:26.835Z,10.61
2023-02-23T22:54:35.427Z,10.72
2023-02-23T22:56:42.206Z,10.80
2023-02-23T22:58:52.318Z,10.81
2023-02-23T23:01:06.683Z,10.79
2023-02-23T23:03:13.203Z,10.63
2023-02-23T23:05:18.792Z,10.63
2023-02-23T23:07:24.948Z,10.61
2023-02-23T23:09:30.899Z,10.57
2023-02-23T23:11:36.424Z,10.58
2023-02-23T23:13:44.865Z,10.57
2023-02-23T23:15:55.247Z,10.52
2023-02-23T23:18:00.186Z,10.45
2023-02-23T23:20:11.740Z,10.37
2023-02-23T23:22:17.526Z,10.37
2023-02-23T23:24:22.320Z,10.33
2023-02-23T23:26:29.123Z,10.33
2023-02-23T23:28:40.162Z,10.33
2023-02-23T23:30:47.441Z,10.29
2023-02-23T23:32:55.124Z,10.31
2023-02-23T23:34:59.995Z,10.27
2023-02-23T23:37:04.821Z,10.30
2023-02-23T23:39:12.090Z,10.36
2023-02-23T23:41:17.201Z,10.41
2023-02-23T23:43:23.338Z,10.43
2023-02-23T23:45:28.251Z,10.49
2023-02-23T23:47:33.180Z,10.42
2023-02-23T23:49:40.932Z,10.42
2023-02-23T23:51:50.040Z,10.39
2023-02-23T23:53:57.466Z,10.35
2023-02-23T23:56:09.138Z,10.30
2023-02-23T23:58:14.070Z,10.20
